Time;durP1;ratioP1;P1;durP2;ratioP2;P2;SDS_P1;SDS_P2;PMS_P1;PMS_P2;Temp;Humidity;BMP_temperature;BMP_pressure;BME280_temperature;BME280_humidity;BME280_pressure;Samples;Min_cycle;Max_cycle;Signal;HPM_P1;HPM_P2
2021/01/03 00:02:28;;;;;;;91.90;33.90;;;0.70;99.90;;;;;;4385940;28;657658;-60
2021/01/03 00:05:16;;;;;;;100.57;36.10;;;0.70;99.90;;;;;;4408065;28;657619;-62
2021/01/03 00:08:03;;;;;;;96.77;34.07;;;0.70;99.90;;;;;;4396282;28;657619;-61
2021/01/03 00:10:50;;;;;;;89.83;31.77;;;0.70;99.90;;;;;;4415515;28;657716;-62
2021/01/03 00:13:39;;;;;;;76.60;28.13;;;0.60;99.90;;;;;;4399620;28;657169;-60
2021/01/03 00:16:26;;;;;;;67.90;26.83;;;0.50;99.90;;;;;;4415956;28;657717;-61
2021/01/03 00:19:13;;;;;;;70.73;26.37;;;0.60;99.90;;;;;;4397542;28;656814;-59
2021/01/03 00:22:00;;;;;;;66.40;25.20;;;0.60;99.90;;;;;;4416383;28;657344;-62
2021/01/03 00:24:47;;;;;;;66.03;24.33;;;0.60;99.90;;;;;;4411537;28;657758;-61
2021/01/03 00:27:34;;;;;;;62.07;23.83;;;0.70;99.90;;;;;;4389350;28;657604;-61
2021/01/03 00:30:24;;;;;;;58.30;22.90;;;0.80;99.90;;;;;;4416004;28;657852;-62
2021/01/03 00:33:11;;;;;;;60.03;21.53;;;0.80;99.90;;;;;;4386683;28;657108;-61
2021/01/03 00:35:58;;;;;;;65.47;23.07;;;0.90;99.90;;;;;;4389852;28;657131;-61
2021/01/03 00:38:45;;;;;;;60.87;22.37;;;1.00;99.90;;;;;;4415522;28;657740;-62
2021/01/03 00:41:33;;;;;;;65.03;23.77;;;1.00;99.90;;;;;;4406120;28;656536;-58
2021/01/03 00:44:20;;;;;;;52.97;21.60;;;1.00;99.90;;;;;;4416209;28;657278;-61
2021/01/03 00:47:08;;;;;;;57.87;21.97;;;1.00;99.90;;;;;;4415433;28;656700;-60
2021/01/03 00:49:55;;;;;;;62.57;22.80;;;1.00;99.90;;;;;;4393177;28;657787;-61
2021/01/03 00:52:42;;;;;;;46.27;17.83;;;1.00;99.90;;;;;;4409169;28;656012;-61
2021/01/03 00:55:29;;;;;;;41.07;15.27;;;1.00;99.90;;;;;;4397693;28;656427;-62
2021/01/03 00:58:16;;;;;;;38.37;15.80;;;1.00;99.90;;;;;;4414848;28;656452;-61
2021/01/03 01:01:03;;;;;;;46.20;19.03;;;1.10;99.90;;;;;;4389786;28;656924;-60
2021/01/03 01:03:51;;;;;;;44.47;17.70;;;1.20;99.90;;;;;;4397454;28;659067;-62
2021/01/03 01:06:38;;;;;;;41.03;16.57;;;1.30;99.90;;;;;;4396630;28;657988;-61
2021/01/03 01:09:25;;;;;;;41.47;17.07;;;1.30;99.90;;;;;;4415611;28;658324;-61
2021/01/03 01:12:13;;;;;;;40.37;16.20;;;1.40;99.90;;;;;;4405935;28;656651;-59
2021/01/03 01:15:00;;;;;;;46.43;19.07;;;1.40;99.90;;;;;;4416104;28;657342;-62
2021/01/03 01:17:47;;;;;;;44.57;17.50;;;1.50;99.90;;;;;;4415876;28;656872;-62
2021/01/03 01:20:35;;;;;;;46.10;17.47;;;1.60;99.90;;;;;;4379543;28;658155;-62
2021/01/03 01:23:23;;;;;;;40.47;16.52;;;1.60;99.90;;;;;;4402094;28;656484;-58
2021/01/03 01:26:10;;;;;;;43.80;15.13;;;1.50;99.90;;;;;;4420603;28;656308;-61
2021/01/03 01:28:57;;;;;;;37.67;14.65;;;1.60;99.90;;;;;;4416173;28;656698;-61
2021/01/03 01:31:44;;;;;;;30.57;13.17;;;1.60;99.90;;;;;;4393915;28;658076;-61
2021/01/03 01:34:31;;;;;;;32.37;12.93;;;1.70;99.90;;;;;;4412868;28;658132;-62
2021/01/03 01:37:19;;;;;;;31.20;12.40;;;1.70;99.90;;;;;;4396896;28;656775;-61
2021/01/03 01:40:07;;;;;;;32.58;11.80;;;1.80;99.90;;;;;;4411426;28;657189;-62
2021/01/03 01:42:54;;;;;;;22.27;9.93;;;1.90;99.90;;;;;;4396997;28;657483;-61
2021/01/03 01:45:42;;;;;;;21.63;9.40;;;1.90;99.90;;;;;;4406248;28;656440;-62
2021/01/03 01:48:33;;;;;;;28.13;10.77;;;2.00;99.90;;;;;;4392122;28;655513;-62
2021/01/03 01:51:21;;;;;;;25.70;10.03;;;2.10;99.90;;;;;;4382037;28;657423;-61
2021/01/03 01:54:11;;;;;;;28.50;11.50;;;2.10;99.90;;;;;;4396625;28;657053;-62
2021/01/03 01:57:00;;;;;;;26.37;11.93;;;2.10;99.90;;;;;;4396542;28;656632;-61
2021/01/03 01:59:50;;;;;;;32.70;13.53;;;2.00;99.90;;;;;;4393723;28;657357;-58
2021/01/03 02:02:39;;;;;;;31.50;13.57;;;2.00;99.90;;;;;;4392261;28;656629;-60
2021/01/03 02:05:29;;;;;;;41.57;15.13;;;1.90;99.90;;;;;;4405576;28;656503;-62
2021/01/03 02:08:25;;;;;;;29.60;12.90;;;1.90;99.90;;;;;;4386812;28;657072;-61
2021/01/03 02:11:15;;;;;;;26.47;10.87;;;1.90;99.90;;;;;;4386857;28;657201;-60
2021/01/03 02:14:03;;;;;;;26.90;11.90;;;1.90;99.90;;;;;;4415588;28;656527;-62
2021/01/03 02:16:50;;;;;;;26.97;11.13;;;1.90;99.90;;;;;;4391598;28;657973;-62
2021/01/03 02:19:37;;;;;;;25.77;10.97;;;1.90;99.90;;;;;;4406173;28;656619;-62
2021/01/03 02:22:27;;;;;;;30.50;12.50;;;1.90;99.90;;;;;;4397103;28;657792;-61
2021/01/03 02:25:15;;;;;;;30.77;12.10;;;1.70;99.90;;;;;;4392262;28;656462;-62
2021/01/03 02:28:11;;;;;;;33.53;12.73;;;1.70;99.90;;;;;;4407736;28;656738;-58
2021/01/03 02:30:58;;;;;;;30.23;12.67;;;1.70;99.90;;;;;;4365832;28;658680;-61
2021/01/03 02:33:47;;;;;;;31.27;13.43;;;1.60;99.90;;;;;;4419067;28;658192;-62
2021/01/03 02:36:36;;;;;;;33.13;13.65;;;1.60;99.90;;;;;;4393427;28;656474;-62
2021/01/03 02:39:29;;;;;;;31.23;12.00;;;1.50;99.90;;;;;;4382448;28;657765;-61
2021/01/03 02:42:19;;;;;;;27.17;11.90;;;1.50;99.90;;;;;;4388593;28;657267;-61
2021/01/03 02:45:08;;;;;;;26.23;11.03;;;1.40;99.90;;;;;;4395701;28;657036;-62
2021/01/03 02:47:57;;;;;;;26.73;11.50;;;1.40;99.90;;;;;;4393879;28;657309;-61
2021/01/03 02:50:44;;;;;;;27.33;11.07;;;1.40;99.90;;;;;;4392009;28;658432;-62
2021/01/03 02:53:31;;;;;;;32.07;11.53;;;1.40;99.90;;;;;;4405092;28;656799;-62
2021/01/03 02:56:18;;;;;;;30.77;11.53;;;1.30;99.90;;;;;;4385434;28;657922;-57
2021/01/03 02:59:06;;;;;;;26.13;10.98;;;1.30;99.90;;;;;;4400666;28;657579;-61
2021/01/03 03:01:53;;;;;;;26.93;11.27;;;1.30;99.90;;;;;;4377873;28;656802;-58
2021/01/03 03:04:39;;;;;;;27.80;11.00;;;1.40;99.90;;;;;;4405274;28;656555;-61
2021/01/03 03:07:27;;;;;;;29.60;11.60;;;1.30;99.90;;;;;;4396527;28;656587;-62
2021/01/03 03:10:14;;;;;;;21.85;10.20;;;1.20;99.90;;;;;;4382549;28;656509;-61
2021/01/03 03:13:01;;;;;;;23.87;9.70;;;1.30;99.90;;;;;;4400754;28;657076;-62
2021/01/03 03:15:49;;;;;;;23.13;9.80;;;1.10;99.90;;;;;;4377950;28;655502;-61
2021/01/03 03:18:36;;;;;;;30.07;10.93;;;1.10;99.90;;;;;;4401476;28;656269;-61
2021/01/03 03:21:23;;;;;;;38.87;13.57;;;1.10;99.90;;;;;;4374916;28;656693;-61
2021/01/03 03:24:10;;;;;;;45.10;15.57;;;1.00;99.90;;;;;;4396763;28;657588;-61
2021/01/03 03:26:58;;;;;;;41.63;14.67;;;0.90;99.90;;;;;;4397941;28;656101;-62
2021/01/03 03:29:45;;;;;;;43.87;14.47;;;0.90;99.90;;;;;;4371541;28;656932;-61
2021/01/03 03:32:33;;;;;;;48.57;15.90;;;1.00;99.90;;;;;;4393693;28;657423;-61
2021/01/03 03:35:22;;;;;;;48.80;17.27;;;1.00;99.90;;;;;;4381428;28;658206;-61
2021/01/03 03:38:08;;;;;;;48.33;16.63;;;0.80;99.90;;;;;;4375426;28;656624;-62
2021/01/03 03:40:56;;;;;;;44.57;16.83;;;0.80;99.90;;;;;;4400555;28;657925;-62
2021/01/03 03:43:44;;;;;;;44.50;15.48;;;0.70;99.90;;;;;;4375421;28;657545;-60
2021/01/03 03:46:31;;;;;;;48.83;17.20;;;0.80;99.90;;;;;;4400037;28;657864;-62
2021/01/03 03:49:19;;;;;;;38.33;13.37;;;0.90;99.90;;;;;;4375487;28;656685;-60
2021/01/03 03:52:06;;;;;;;52.50;17.25;;;0.70;99.90;;;;;;4400855;28;657723;-62
2021/01/03 03:54:53;;;;;;;33.57;13.60;;;0.60;99.90;;;;;;4378733;28;656329;-61
2021/01/03 03:57:40;;;;;;;55.67;17.77;;;0.60;99.90;;;;;;4390839;28;657765;-62
2021/01/03 04:00:27;;;;;;;36.27;13.23;;;0.60;99.90;;;;;;4407593;28;656466;-56
2021/01/03 04:03:17;;;;;;;41.20;13.67;;;0.80;99.90;;;;;;4415741;28;659447;-62
2021/01/03 04:06:05;;;;;;;41.60;14.40;;;0.70;99.90;;;;;;4390610;28;658912;-61
2021/01/03 04:08:53;;;;;;;37.27;14.17;;;0.70;99.90;;;;;;4394764;28;656473;-60
2021/01/03 04:11:40;;;;;;;80.57;26.27;;;0.70;99.90;;;;;;4414881;28;656821;-61
2021/01/03 04:14:27;;;;;;;69.30;23.33;;;0.80;99.90;;;;;;4412203;28;656733;-61
2021/01/03 04:17:14;;;;;;;66.53;22.05;;;0.70;99.90;;;;;;4398202;28;657816;-61
2021/01/03 04:20:01;;;;;;;58.53;20.90;;;0.70;99.90;;;;;;4411624;28;656939;-62
2021/01/03 04:22:48;;;;;;;59.28;20.27;;;0.70;99.90;;;;;;4379041;28;657816;-60
2021/01/03 04:25:35;;;;;;;54.47;21.90;;;0.70;99.90;;;;;;4409270;28;657701;-62
2021/01/03 04:28:23;;;;;;;61.10;23.70;;;0.70;99.90;;;;;;4390691;28;656466;-60
2021/01/03 04:31:10;;;;;;;59.30;23.23;;;0.70;99.90;;;;;;4420934;28;657602;-62
2021/01/03 04:33:56;;;;;;;72.63;26.50;;;0.60;99.90;;;;;;4409890;28;657893;-62
2021/01/03 04:36:43;;;;;;;67.03;26.70;;;0.60;99.90;;;;;;4397959;28;656724;-62
2021/01/03 04:39:31;;;;;;;65.47;26.20;;;0.60;99.90;;;;;;4413276;28;657415;-62
2021/01/03 04:42:20;;;;;;;55.80;22.67;;;0.60;99.90;;;;;;4395662;28;657802;-61
2021/01/03 04:45:13;;;;;;;53.87;21.10;;;0.60;99.90;;;;;;4408959;28;656741;-62
2021/01/03 04:48:01;;;;;;;63.70;24.20;;;0.60;99.90;;;;;;4371291;28;658081;-61
2021/01/03 04:51:13;;;;;;;52.50;19.60;;;0.60;99.90;;;;;;4392710;28;656664;-61
2021/01/03 04:54:05;;;;;;;47.63;18.40;;;0.60;99.90;;;;;;4368324;28;657004;-61
2021/01/03 04:56:54;;;;;;;53.47;19.47;;;0.50;99.90;;;;;;4376547;28;657051;-60
2021/01/03 04:59:43;;;;;;;48.47;20.23;;;0.50;99.90;;;;;;4407234;28;656156;-61
2021/01/03 05:02:50;;;;;;;48.80;19.13;;;0.50;99.90;;;;;;4397874;28;657960;-61
2021/01/03 05:05:38;;;;;;;48.37;19.27;;;0.50;99.90;;;;;;4374024;28;656137;-60
2021/01/03 05:08:32;;;;;;;45.30;18.40;;;0.40;99.90;;;;;;4407816;28;657189;-62
2021/01/03 05:11:21;;;;;;;49.57;20.13;;;0.50;99.90;;;;;;4396432;28;657838;-61
2021/01/03 05:14:14;;;;;;;45.40;18.90;;;0.60;99.90;;;;;;4395026;28;656538;-60
2021/01/03 05:17:01;;;;;;;48.70;19.50;;;0.60;99.90;;;;;;4387292;28;657250;-62
2021/01/03 05:19:48;;;;;;;44.77;17.80;;;0.60;99.90;;;;;;4394408;28;656605;-61
2021/01/03 05:22:37;;;;;;;44.00;18.07;;;0.60;99.90;;;;;;4408980;28;657601;-62
2021/01/03 05:25:41;;;;;;;45.70;17.75;;;0.50;99.90;;;;;;4397687;28;657908;-61
2021/01/03 05:28:29;;;;;;;34.77;15.30;;;0.50;99.90;;;;;;4370590;28;657981;-58
2021/01/03 05:31:18;;;;;;;59.57;19.93;;;0.60;99.90;;;;;;4416605;28;656997;-61
2021/01/03 05:34:07;;;;;;;81.50;23.57;;;0.60;99.90;;;;;;4387507;28;657874;-62
2021/01/03 05:36:54;;;;;;;83.77;23.43;;;0.70;99.90;;;;;;4393170;28;658282;-62
2021/01/03 05:39:41;;;;;;;73.33;22.50;;;0.70;99.90;;;;;;4410582;28;657046;-62
2021/01/03 05:42:34;;;;;;;52.90;18.13;;;0.80;99.90;;;;;;4392491;28;657627;-61
2021/01/03 05:45:23;;;;;;;55.13;18.23;;;0.90;99.90;;;;;;4386756;28;656174;-62
2021/01/03 05:48:21;;;;;;;29.20;11.67;;;1.00;99.90;;;;;;4392846;28;657855;-61
2021/01/03 05:51:20;;;;;;;31.87;13.47;;;1.10;99.90;;;;;;4374543;28;657809;-61
2021/01/03 05:54:09;;;;;;;32.37;12.30;;;1.10;99.90;;;;;;4381661;28;657975;-60
2021/01/03 05:56:57;;;;;;;30.30;12.07;;;1.10;99.90;;;;;;4412094;28;657490;-62
2021/01/03 05:59:45;;;;;;;33.10;14.50;;;1.10;99.90;;;;;;4400429;28;657197;-61
2021/01/03 06:02:33;;;;;;;35.17;14.97;;;1.10;99.90;;;;;;4416796;28;656352;-60
2021/01/03 06:05:22;;;;;;;37.13;15.57;;;1.10;99.90;;;;;;4408990;28;657522;-62
2021/01/03 06:08:12;;;;;;;41.10;16.50;;;1.20;99.90;;;;;;4400421;28;656937;-61
2021/01/03 06:11:10;;;;;;;44.70;17.30;;;1.20;99.90;;;;;;4396054;28;657787;-61
2021/01/03 06:13:57;;;;;;;36.83;15.03;;;1.20;99.90;;;;;;4391004;28;656393;-62
2021/01/03 06:16:46;;;;;;;41.07;17.20;;;1.40;99.90;;;;;;4385456;28;657781;-62
2021/01/03 06:19:37;;;;;;;44.87;18.40;;;1.30;99.90;;;;;;4390196;28;656779;-61
2021/01/03 06:22:41;;;;;;;47.35;19.05;;;1.20;99.90;;;;;;4391882;28;657253;-61
2021/01/03 06:25:42;;;;;;;40.53;15.63;;;1.20;99.90;;;;;;4373227;28;657158;-61
2021/01/03 06:28:40;;;;;;;48.90;17.07;;;1.20;99.90;;;;;;4397556;28;657274;-62
2021/01/03 06:31:49;;;;;;;50.00;18.27;;;1.10;99.90;;;;;;4382178;28;657197;-62
2021/01/03 06:34:40;;;;;;;39.37;17.17;;;1.00;99.90;;;;;;4387977;28;657746;-62
2021/01/03 06:37:34;;;;;;;43.77;16.90;;;1.00;99.90;;;;;;4396003;28;657465;-62
2021/01/03 06:40:24;;;;;;;34.27;14.30;;;1.00;99.90;;;;;;4390515;28;656942;-61
2021/01/03 06:43:28;;;;;;;38.23;14.63;;;1.00;99.90;;;;;;4399351;28;656576;-62
2021/01/03 06:46:55;;;;;;;42.50;15.93;;;1.10;99.90;;;;;;4394786;28;657731;-61
2021/01/03 06:50:17;;;;;;;35.67;14.00;;;1.00;99.90;;;;;;4318691;28;656821;-60
2021/01/03 06:53:23;;;;;;;28.07;12.20;;;1.00;99.90;;;;;;4258983;29;656747;-61
2021/01/03 06:56:29;;;;;;;37.03;13.33;;;1.10;99.90;;;;;;4237068;29;657542;-62
2021/01/03 06:59:35;;;;;;;39.40;15.33;;;1.10;99.90;;;;;;4258916;29;657766;-61
2021/01/03 07:02:22;;;;;;;37.78;14.40;;;1.00;99.90;;;;;;4227088;29;656433;-62
2021/01/03 07:05:10;;;;;;;34.43;14.90;;;1.10;99.90;;;;;;4225721;29;656991;-62
2021/01/03 07:07:59;;;;;;;35.93;13.50;;;1.10;99.90;;;;;;4240524;29;656799;-62
2021/01/03 07:10:46;;;;;;;37.17;14.57;;;1.10;99.90;;;;;;4227153;29;657601;-62
2021/01/03 07:13:39;;;;;;;44.10;16.87;;;1.10;99.90;;;;;;4230061;29;656900;-60
2021/01/03 07:16:59;;;;;;;42.00;17.47;;;1.10;99.90;;;;;;4221267;29;657375;-62
2021/01/03 07:19:50;;;;;;;37.60;13.80;;;1.20;99.90;;;;;;4156431;29;657245;-61
2021/01/03 07:22:53;;;;;;;44.87;15.90;;;1.20;99.90;;;;;;4154254;29;656889;-60
2021/01/03 07:25:45;;;;;;;40.30;16.23;;;1.20;99.90;;;;;;4173783;29;657480;-62
2021/01/03 07:28:33;;;;;;;41.73;15.00;;;1.30;99.90;;;;;;4187918;29;657188;-60
2021/01/03 07:31:57;;;;;;;39.42;14.07;;;1.40;99.90;;;;;;4237620;29;656690;-62
2021/01/03 07:34:49;;;;;;;37.77;13.67;;;1.50;99.90;;;;;;4185021;29;657885;-61
2021/01/03 07:37:36;;;;;;;46.57;16.30;;;1.60;99.90;;;;;;4220374;29;656690;-62
2021/01/03 07:40:24;;;;;;;64.83;20.80;;;1.60;99.90;;;;;;4216620;29;656426;-62
2021/01/03 07:43:11;;;;;;;40.97;14.73;;;1.70;99.90;;;;;;4253431;29;656023;-62
2021/01/03 07:45:58;;;;;;;31.67;13.03;;;1.70;99.90;;;;;;4246955;29;657526;-61
2021/01/03 07:48:46;;;;;;;68.70;21.87;;;1.80;99.90;;;;;;4260929;29;657404;-62
2021/01/03 07:51:43;;;;;;;63.27;20.67;;;1.80;99.90;;;;;;4245921;29;657267;-61
2021/01/03 07:54:30;;;;;;;58.83;17.33;;;1.90;99.90;;;;;;4276415;28;656871;-61
2021/01/03 07:57:17;;;;;;;60.70;17.27;;;1.90;99.90;;;;;;4334308;28;657186;-61
2021/01/03 08:00:05;;;;;;;30.60;10.30;;;2.00;99.90;;;;;;4314169;28;656944;-61
2021/01/03 08:02:57;;;;;;;19.83;7.17;;;2.00;99.90;;;;;;4336971;28;657550;-65
2021/01/03 08:05:45;;;;;;;19.17;8.30;;;2.00;99.90;;;;;;4315554;28;656411;-67
2021/01/03 08:08:33;;;;;;;25.80;10.13;;;2.00;99.90;;;;;;4368303;28;655415;-64
2021/01/03 08:11:24;;;;;;;43.00;16.57;;;2.10;99.90;;;;;;4401913;28;657704;-67
2021/01/03 08:14:17;;;;;;;132.13;48.20;;;2.20;99.90;;;;;;4387289;28;658476;-67
2021/01/03 08:17:04;;;;;;;107.63;43.17;;;2.00;99.90;;;;;;4363329;28;658375;-67
2021/01/03 08:19:51;;;;;;;113.93;44.03;;;2.00;99.90;;;;;;4405404;28;657425;-67
2021/01/03 08:22:39;;;;;;;105.23;41.67;;;1.90;99.90;;;;;;4385951;28;657451;-67
2021/01/03 08:25:27;;;;;;;127.20;47.07;;;1.90;99.90;;;;;;4412091;28;658573;-67
2021/01/03 08:28:16;;;;;;;105.30;42.90;;;1.90;99.90;;;;;;4383536;28;658625;-67
2021/01/03 08:31:03;;;;;;;116.10;43.70;;;2.00;99.90;;;;;;4395251;28;657832;-65
2021/01/03 08:33:51;;;;;;;108.23;39.40;;;2.10;99.90;;;;;;4411134;28;659783;-67
2021/01/03 08:36:38;;;;;;;100.03;38.33;;;2.20;99.90;;;;;;4396366;28;657931;-66
2021/01/03 08:39:27;;;;;;;99.77;38.30;;;2.30;99.90;;;;;;4410149;28;658757;-67
2021/01/03 08:42:18;;;;;;;91.30;37.83;;;2.40;99.90;;;;;;4397428;28;657259;-67
2021/01/03 08:45:06;;;;;;;92.60;35.97;;;2.50;99.90;;;;;;4390048;28;658132;-67
2021/01/03 08:47:53;;;;;;;93.10;32.77;;;2.50;99.90;;;;;;4397943;28;656573;-67
2021/01/03 08:50:41;;;;;;;93.53;33.50;;;2.60;99.90;;;;;;4412137;28;657580;-67
2021/01/03 08:53:28;;;;;;;86.33;33.47;;;2.70;99.90;;;;;;4393760;28;656396;-67
2021/01/03 08:56:17;;;;;;;133.23;47.43;;;2.90;99.90;;;;;;4410023;28;658326;-68
2021/01/03 08:59:04;;;;;;;102.03;39.13;;;2.90;99.90;;;;;;4390719;28;659127;-68
2021/01/03 09:01:52;;;;;;;103.73;41.33;;;2.90;99.90;;;;;;4418229;28;657718;-67
2021/01/03 09:04:39;;;;;;;103.47;41.30;;;2.90;99.90;;;;;;4394923;28;658734;-68
2021/01/03 09:07:26;;;;;;;101.17;38.70;;;2.90;99.90;;;;;;4402275;28;658233;-68
2021/01/03 09:10:19;;;;;;;82.70;35.43;;;2.90;99.90;;;;;;4388106;28;657665;-67
2021/01/03 09:13:23;;;;;;;75.27;29.97;;;3.00;99.90;;;;;;4377226;28;657196;-68
2021/01/03 09:16:19;;;;;;;65.00;26.17;;;2.90;99.90;;;;;;4398325;28;657398;-69
2021/01/03 09:19:11;;;;;;;64.43;25.57;;;3.00;99.90;;;;;;4389810;28;656354;-68
2021/01/03 09:22:00;;;;;;;57.10;23.97;;;3.00;99.90;;;;;;4367598;28;657083;-67
2021/01/03 09:24:47;;;;;;;51.88;22.40;;;3.10;99.90;;;;;;4408270;28;657446;-69
2021/01/03 09:27:34;;;;;;;55.80;23.20;;;3.10;99.90;;;;;;4389653;28;656480;-68
2021/01/03 09:30:25;;;;;;;48.67;21.87;;;3.10;99.90;;;;;;4416513;28;658556;-68
2021/01/03 09:33:22;;;;;;;44.20;18.17;;;3.10;99.90;;;;;;4354665;28;656983;-66
2021/01/03 09:36:21;;;;;;;40.53;17.97;;;3.20;99.90;;;;;;4365675;28;657792;-68
2021/01/03 09:39:16;;;;;;;37.30;17.30;;;3.30;99.90;;;;;;4373883;28;656680;-68
2021/01/03 09:42:38;;;;;;;43.20;19.37;;;3.40;99.90;;;;;;4376487;28;657451;-67
2021/01/03 09:45:36;;;;;;;46.30;21.37;;;3.80;99.90;;;;;;4390178;28;656714;-68
2021/01/03 09:48:28;;;;;;;68.23;27.83;;;3.70;99.90;;;;;;4355717;28;656978;-69
2021/01/03 09:51:23;;;;;;;61.37;25.83;;;3.70;99.90;;;;;;4396100;28;657206;-69
2021/01/03 09:54:12;;;;;;;53.67;23.90;;;3.70;99.90;;;;;;4356804;28;657038;-69
2021/01/03 09:56:59;;;;;;;55.60;23.10;;;3.70;99.90;;;;;;4395446;28;657560;-68
2021/01/03 09:59:54;;;;;;;82.13;28.27;;;3.70;99.90;;;;;;4406580;28;656301;-68
2021/01/03 10:02:42;;;;;;;87.77;30.77;;;3.80;99.90;;;;;;4393678;28;656794;-67
2021/01/03 10:05:30;;;;;;;75.70;27.87;;;3.80;99.90;;;;;;4394378;28;657349;-68
2021/01/03 10:08:20;;;;;;;77.27;31.00;;;3.80;99.90;;;;;;4408240;28;656618;-67
2021/01/03 10:11:08;;;;;;;94.90;35.30;;;3.90;99.90;;;;;;4397050;28;657056;-68
2021/01/03 10:13:56;;;;;;;84.67;33.93;;;3.90;99.90;;;;;;4422302;28;657381;-69
2021/01/03 10:16:43;;;;;;;89.20;36.63;;;4.00;99.90;;;;;;4399452;28;656488;-69
2021/01/03 10:19:34;;;;;;;122.63;44.50;;;4.10;99.90;;;;;;4418139;28;657279;-68
2021/01/03 10:22:28;;;;;;;210.50;80.33;;;4.00;99.90;;;;;;4394181;28;658380;-69
2021/01/03 10:25:17;;;;;;;186.57;69.53;;;4.10;99.90;;;;;;4389163;28;657876;-70
2021/01/03 10:28:07;;;;;;;192.50;66.40;;;4.10;99.90;;;;;;4393756;28;659401;-69
2021/01/03 10:30:54;;;;;;;141.57;50.57;;;4.10;99.90;;;;;;4393891;28;658937;-68
2021/01/03 10:33:41;;;;;;;122.30;44.90;;;4.20;99.90;;;;;;4416453;28;657328;-69
2021/01/03 10:36:29;;;;;;;100.40;37.83;;;4.20;99.90;;;;;;4397612;28;657683;-66
2021/01/03 10:39:16;;;;;;;88.53;32.43;;;4.30;99.90;;;;;;4401052;28;658199;-68
2021/01/03 10:42:04;;;;;;;82.50;31.77;;;4.50;99.90;;;;;;4395319;28;656945;-67
2021/01/03 10:44:51;;;;;;;79.87;29.03;;;4.60;99.90;;;;;;4413023;28;657361;-68
2021/01/03 10:47:38;;;;;;;61.63;23.70;;;4.70;99.90;;;;;;4379417;28;656614;-68
2021/01/03 10:50:25;;;;;;;54.67;21.57;;;4.80;99.90;;;;;;4409360;28;658208;-68
2021/01/03 10:53:13;;;;;;;64.87;26.37;;;4.90;99.90;;;;;;4411778;28;656376;-68
2021/01/03 10:56:00;;;;;;;60.80;24.97;;;5.00;99.90;;;;;;4391127;28;657355;-68
2021/01/03 10:58:48;;;;;;;65.07;25.53;;;5.00;99.90;;;;;;4398962;28;656309;-66
2021/01/03 11:01:38;;;;;;;57.15;22.98;;;5.10;99.90;;;;;;4415634;28;656499;-67
2021/01/03 11:04:25;;;;;;;73.17;27.97;;;5.10;99.90;;;;;;4389971;28;657557;-68
2021/01/03 11:07:13;;;;;;;114.23;44.50;;;5.30;99.90;;;;;;4400874;28;656425;-67
2021/01/03 11:10:01;;;;;;;129.18;52.92;;;5.30;99.90;;;;;;4420463;28;657973;-68
2021/01/03 11:12:47;;;;;;;125.60;47.23;;;5.40;99.90;;;;;;4391825;28;657712;-66
2021/01/03 11:15:36;;;;;;;126.47;48.33;;;5.30;99.90;;;;;;4404720;28;657322;-68
2021/01/03 11:18:23;;;;;;;105.07;41.83;;;5.40;99.90;;;;;;4396979;28;657433;-68
2021/01/03 11:21:14;;;;;;;83.30;32.40;;;5.30;99.10;;;;;;4403174;28;658238;-68
2021/01/03 11:24:01;;;;;;;75.20;29.70;;;5.00;99.90;;;;;;4394844;28;657485;-68
2021/01/03 11:26:49;;;;;;;63.67;25.37;;;4.80;99.90;;;;;;4393071;28;656540;-67
2021/01/03 11:29:36;;;;;;;55.83;23.23;;;4.70;99.90;;;;;;4417950;28;657258;-67
2021/01/03 11:32:25;;;;;;;54.33;23.07;;;4.60;99.90;;;;;;4393634;28;656809;-67
2021/01/03 11:35:14;;;;;;;52.83;21.70;;;4.60;99.90;;;;;;4399995;28;656682;-65
2021/01/03 11:38:01;;;;;;;51.77;22.30;;;4.50;99.90;;;;;;4412398;28;656356;-68
2021/01/03 11:40:48;;;;;;;62.17;26.57;;;4.50;99.90;;;;;;4390462;28;656528;-66
2021/01/03 11:43:36;;;;;;;50.47;21.13;;;4.50;99.90;;;;;;4408666;28;657711;-68
2021/01/03 11:46:23;;;;;;;56.37;22.90;;;4.50;99.90;;;;;;4398195;28;657340;-66
2021/01/03 11:49:10;;;;;;;53.30;23.17;;;4.40;99.90;;;;;;4415367;28;657758;-68
2021/01/03 11:51:57;;;;;;;56.47;24.60;;;4.40;99.90;;;;;;4408029;28;657130;-68
2021/01/03 11:54:43;;;;;;;56.03;25.40;;;4.40;99.90;;;;;;4393243;28;656470;-67
2021/01/03 11:57:30;;;;;;;55.57;24.03;;;4.40;99.90;;;;;;4409785;28;656985;-68
2021/01/03 12:00:20;;;;;;;62.43;26.00;;;4.40;99.90;;;;;;4400888;28;656510;-66
2021/01/03 12:03:07;;;;;;;66.10;28.27;;;4.40;99.90;;;;;;4411901;28;656821;-68
2021/01/03 12:05:54;;;;;;;78.77;31.77;;;4.40;99.90;;;;;;4389948;28;656681;-69
2021/01/03 12:08:42;;;;;;;109.90;38.43;;;4.30;99.90;;;;;;4411513;28;657093;-69
2021/01/03 12:11:33;;;;;;;101.43;41.10;;;4.30;99.90;;;;;;4387727;28;657783;-69
2021/01/03 12:14:21;;;;;;;97.43;39.13;;;4.20;99.90;;;;;;4370267;28;658365;-69
2021/01/03 12:17:10;;;;;;;97.67;38.53;;;4.30;99.90;;;;;;4397726;28;658338;-66
2021/01/03 12:19:57;;;;;;;94.03;37.60;;;4.30;99.90;;;;;;4404672;28;657154;-69
2021/01/03 12:22:44;;;;;;;90.03;38.00;;;4.30;99.90;;;;;;4387809;28;657150;-67
2021/01/03 12:25:31;;;;;;;92.93;36.90;;;4.20;99.90;;;;;;4416662;28;656624;-69
2021/01/03 12:28:18;;;;;;;109.87;43.57;;;4.20;99.90;;;;;;4391739;28;657504;-68
2021/01/03 12:31:05;;;;;;;128.17;46.93;;;4.20;99.90;;;;;;4410218;28;659421;-69
2021/01/03 12:33:53;;;;;;;116.50;45.67;;;4.20;99.90;;;;;;4411183;28;658594;-66
2021/01/03 12:36:40;;;;;;;194.03;70.90;;;4.20;99.90;;;;;;4416520;28;657840;-69
2021/01/03 12:39:27;;;;;;;173.50;62.33;;;4.30;99.90;;;;;;4399820;28;657565;-66
2021/01/03 12:42:16;;;;;;;157.10;57.37;;;4.20;99.90;;;;;;4415292;28;658922;-69
2021/01/03 12:45:03;;;;;;;139.70;52.70;;;4.30;99.90;;;;;;4396032;28;658004;-66
2021/01/03 12:47:50;;;;;;;139.50;51.93;;;4.40;99.90;;;;;;4418786;28;657210;-70
2021/01/03 12:50:38;;;;;;;152.10;56.77;;;4.50;99.90;;;;;;4415095;28;657623;-69
2021/01/03 12:53:25;;;;;;;142.33;51.33;;;4.60;99.90;;;;;;4389556;28;658558;-69
2021/01/03 12:56:11;;;;;;;116.47;44.35;;;4.80;99.90;;;;;;4414536;28;657760;-70
2021/01/03 12:58:59;;;;;;;108.80;42.47;;;4.90;99.90;;;;;;4388998;28;657580;-70
2021/01/03 13:01:46;;;;;;;104.60;40.40;;;4.90;99.90;;;;;;4409641;28;658394;-70
2021/01/03 13:04:33;;;;;;;89.13;34.40;;;5.10;99.90;;;;;;4388302;28;657764;-69
2021/01/03 13:07:21;;;;;;;71.67;28.30;;;5.20;99.90;;;;;;4415476;28;658004;-70
2021/01/03 13:10:09;;;;;;;73.40;28.77;;;5.40;99.90;;;;;;4397151;28;656856;-68
2021/01/03 13:12:56;;;;;;;69.50;25.17;;;5.60;99.90;;;;;;4415520;28;656938;-70
2021/01/03 13:15:43;;;;;;;56.53;20.73;;;5.70;99.40;;;;;;4389956;28;656452;-69
2021/01/03 13:18:30;;;;;;;50.87;19.20;;;5.90;97.00;;;;;;4412282;28;656604;-69
2021/01/03 13:21:18;;;;;;;55.90;21.33;;;6.20;95.10;;;;;;4411392;28;656441;-66
2021/01/03 13:24:07;;;;;;;41.38;16.80;;;7.10;93.70;;;;;;4411990;28;656705;-69
2021/01/03 13:26:54;;;;;;;49.60;18.97;;;8.10;84.70;;;;;;4386711;28;656778;-69
2021/01/03 13:29:41;;;;;;;47.57;18.53;;;9.70;76.60;;;;;;4415700;28;657737;-70
2021/01/03 13:32:28;;;;;;;47.20;19.53;;;10.80;70.10;;;;;;4390286;28;656754;-70
2021/01/03 13:35:15;;;;;;;66.70;24.63;;;11.50;64.40;;;;;;4409830;28;658853;-70
2021/01/03 13:38:03;;;;;;;56.00;23.03;;;12.40;62.20;;;;;;4401964;28;657454;-67
2021/01/03 13:40:51;;;;;;;49.53;20.27;;;12.30;58.20;;;;;;4417618;28;657319;-68
2021/01/03 13:43:38;;;;;;;58.83;22.97;;;12.00;59.20;;;;;;4389336;28;657522;-66
2021/01/03 13:46:25;;;;;;;68.78;26.33;;;11.60;57.80;;;;;;4410765;28;658810;-70
2021/01/03 13:49:12;;;;;;;80.20;31.83;;;11.10;58.40;;;;;;4406662;28;657760;-70
2021/01/03 13:51:59;;;;;;;81.67;33.00;;;10.60;60.30;;;;;;4388281;28;657965;-70
2021/01/03 13:54:46;;;;;;;70.38;28.60;;;11.00;61.10;;;;;;4412834;28;659117;-70
2021/01/03 13:57:34;;;;;;;79.77;30.57;;;10.50;60.60;;;;;;4375461;28;658570;-66
2021/01/03 14:00:22;;;;;;;86.20;32.93;;;10.10;61.30;;;;;;4412529;28;658688;-70
2021/01/03 14:03:09;;;;;;;104.57;37.53;;;9.80;63.20;;;;;;4388831;28;659260;-70
2021/01/03 14:05:56;;;;;;;107.37;38.57;;;9.90;63.90;;;;;;4414161;28;657523;-70
2021/01/03 14:08:43;;;;;;;132.53;42.50;;;9.80;63.80;;;;;;4384360;28;657829;-70
2021/01/03 14:11:30;;;;;;;131.40;40.43;;;9.40;64.20;;;;;;4404014;28;659285;-68
2021/01/03 14:14:18;;;;;;;102.17;33.40;;;9.10;65.90;;;;;;4405336;28;657857;-66
2021/01/03 14:17:05;;;;;;;122.90;40.53;;;8.90;66.20;;;;;;4417419;28;659145;-69
2021/01/03 14:19:53;;;;;;;128.70;44.17;;;9.40;66.60;;;;;;4387000;28;657367;-67